Time;durP1;ratioP1;P1;durP2;ratioP2;P2;SDS_P1;SDS_P2;PMS_P1;PMS_P2;Temp;Humidity;BMP_temperature;BMP_pressure;BME280_temperature;BME280_humidity;BME280_pressure;Samples;Min_cycle;Max_cycle;Signal;HPM_P1;HPM_P2
2021/12/17 00:00:45;;;;;;;19.13;13.07;;;;;;;;;;5055591;28;20540;-60
2021/12/17 00:03:16;;;;;;;19.17;13.73;;;;;;;;;;5053618;28;20421;-59
2021/12/17 00:05:53;;;;;;;16.17;12.03;;;;;;;;;;5042040;28;20407;-59
2021/12/17 00:08:20;;;;;;;16.63;11.80;;;;;;;;;;5040542;28;20495;-60
2021/12/17 00:10:47;;;;;;;17.20;12.60;;;;;;;;;;5046610;28;20416;-60
2021/12/17 00:13:13;;;;;;;22.33;11.93;;;;;;;;;;5054539;28;20918;-60
2021/12/17 00:15:40;;;;;;;15.00;10.43;;;;;;;;;;5047466;28;20465;-62
2021/12/17 00:18:22;;;;;;;16.57;10.47;;;;;;;;;;5040056;28;20433;-60
2021/12/17 00:48:36;;;;;;;15.47;9.87;;;;;;;;;;5034891;28;20502;-61
2021/12/17 00:53:58;;;;;;;17.87;12.73;;;;;;;;;;5033640;28;20821;-60
2021/12/17 00:56:24;;;;;;;16.20;10.50;;;;;;;;;;5034749;28;20442;-60
2021/12/17 00:58:50;;;;;;;20.77;11.90;;;;;;;;;;5034452;28;20423;-61
2021/12/17 01:01:17;;;;;;;17.47;10.90;;;;;;;;;;5034628;28;20499;-61
2021/12/17 01:03:43;;;;;;;15.27;10.20;;;;;;;;;;5034517;28;20395;-61
2021/12/17 01:06:10;;;;;;;13.70;9.77;;;;;;;;;;5034483;28;20402;-61
2021/12/17 01:08:36;;;;;;;13.27;8.87;;;;;;;;;;5034269;28;20425;-61
2021/12/17 01:11:03;;;;;;;13.63;9.57;;;;;;;;;;5034315;28;20406;-62
2021/12/17 01:13:30;;;;;;;12.63;10.00;;;;;;;;;;5034521;28;20418;-61
2021/12/17 01:15:56;;;;;;;13.53;9.20;;;;;;;;;;5034601;28;20465;-62
2021/12/17 01:18:25;;;;;;;13.10;10.17;;;;;;;;;;5034088;28;20423;-61
2021/12/17 01:42:42;;;;;;;13.43;10.27;;;;;;;;;;5034067;28;20407;-60
2021/12/17 01:45:08;;;;;;;16.20;9.50;;;;;;;;;;5033489;28;20399;-61
2021/12/17 01:47:35;;;;;;;15.27;10.07;;;;;;;;;;5033442;28;20434;-62
2021/12/17 01:55:49;;;;;;;13.40;9.90;;;;;;;;;;5033409;28;20759;-61
2021/12/17 02:01:19;;;;;;;13.67;10.37;;;;;;;;;;5050843;28;20527;-59
2021/12/17 02:03:45;;;;;;;12.77;10.30;;;;;;;;;;5059156;28;20429;-61
2021/12/17 02:06:12;;;;;;;16.93;10.73;;;;;;;;;;5050925;28;20437;-61
2021/12/17 02:08:38;;;;;;;16.67;12.33;;;;;;;;;;5033419;28;20499;-61
2021/12/17 02:22:53;;;;;;;14.03;11.10;;;;;;;;;;5033365;28;20391;-62
2021/12/17 02:32:58;;;;;;;15.47;10.37;;;;;;;;;;5033478;28;20485;-60
2021/12/17 02:37:51;;;;;;;11.93;9.20;;;;;;;;;;5033436;28;20907;-60
2021/12/17 02:45:48;;;;;;;15.80;10.37;;;;;;;;;;5032917;28;20414;-61
2021/12/17 02:48:22;;;;;;;15.43;10.27;;;;;;;;;;5032765;28;20423;-61
2021/12/17 02:50:53;;;;;;;14.93;10.57;;;;;;;;;;5032894;28;20435;-61
2021/12/17 02:53:19;;;;;;;15.70;10.70;;;;;;;;;;5033009;28;20406;-62
2021/12/17 02:55:49;;;;;;;15.70;10.73;;;;;;;;;;5032887;28;20407;-62
2021/12/17 02:58:15;;;;;;;12.10;9.57;;;;;;;;;;5032568;28;20458;-62
2021/12/17 03:00:42;;;;;;;15.23;9.93;;;;;;;;;;5034068;28;20458;-61
2021/12/17 03:03:09;;;;;;;13.60;10.17;;;;;;;;;;5036672;28;20883;-62
2021/12/17 03:05:38;;;;;;;15.13;10.30;;;;;;;;;;5036683;28;20410;-62
2021/12/17 03:08:07;;;;;;;13.83;9.30;;;;;;;;;;5036500;28;20441;-62
2021/12/17 03:10:33;;;;;;;14.83;10.40;;;;;;;;;;5036837;28;20740;-62
2021/12/17 03:13:02;;;;;;;14.10;9.57;;;;;;;;;;5037078;28;20407;-62
2021/12/17 03:15:50;;;;;;;15.33;10.53;;;;;;;;;;5036559;28;20982;-62
2021/12/17 03:23:44;;;;;;;14.73;10.13;;;;;;;;;;5036517;28;20514;-62
2021/12/17 03:26:15;;;;;;;14.60;10.23;;;;;;;;;;5036252;28;20918;-61
2021/12/17 03:28:43;;;;;;;13.03;10.90;;;;;;;;;;5036093;28;20423;-61
2021/12/17 03:31:10;;;;;;;14.30;10.77;;;;;;;;;;5036527;28;20445;-61
2021/12/17 03:33:38;;;;;;;14.03;10.97;;;;;;;;;;5036408;28;20399;-61
2021/12/17 03:36:04;;;;;;;13.70;10.13;;;;;;;;;;5049339;28;20901;-62
2021/12/17 03:38:30;;;;;;;15.10;10.43;;;;;;;;;;5036144;28;20418;-61
2021/12/17 03:41:19;;;;;;;12.83;9.83;;;;;;;;;;5044361;28;20472;-59
2021/12/17 03:43:45;;;;;;;13.20;10.57;;;;;;;;;;5056030;28;20401;-61
2021/12/17 03:46:11;;;;;;;13.33;10.50;;;;;;;;;;5055784;28;20452;-60
2021/12/17 03:48:39;;;;;;;17.80;11.93;;;;;;;;;;5056041;28;20831;-60
2021/12/17 03:51:11;;;;;;;13.70;10.03;;;;;;;;;;5055921;28;20410;-61
2021/12/17 03:53:37;;;;;;;12.20;9.63;;;;;;;;;;5055708;28;20515;-60
2021/12/17 03:56:03;;;;;;;12.43;9.93;;;;;;;;;;5055462;28;20436;-59
2021/12/17 03:58:29;;;;;;;14.07;10.50;;;;;;;;;;5055772;28;20422;-58
2021/12/17 04:00:55;;;;;;;12.83;9.43;;;;;;;;;;5055957;28;20943;-61
2021/12/17 04:03:21;;;;;;;14.07;10.40;;;;;;;;;;5055510;28;20905;-61
2021/12/17 04:05:47;;;;;;;13.97;10.33;;;;;;;;;;5056030;28;20451;-60
2021/12/17 04:08:13;;;;;;;12.67;10.30;;;;;;;;;;5055384;28;20418;-61
2021/12/17 04:10:47;;;;;;;16.10;11.50;;;;;;;;;;5055689;28;20413;-59
2021/12/17 04:13:25;;;;;;;18.40;11.43;;;;;;;;;;5054553;28;20506;-62
2021/12/17 04:15:58;;;;;;;15.77;10.40;;;;;;;;;;5054028;28;20405;-61
2021/12/17 04:18:24;;;;;;;12.37;10.10;;;;;;;;;;5055381;28;20426;-62
2021/12/17 04:20:51;;;;;;;13.50;10.03;;;;;;;;;;5055171;28;20449;-61
2021/12/17 04:23:17;;;;;;;11.40;9.90;;;;;;;;;;5053303;28;20434;-61
2021/12/17 04:25:43;;;;;;;14.90;10.73;;;;;;;;;;5037834;28;20904;-62
2021/12/17 04:28:09;;;;;;;13.00;11.13;;;;;;;;;;5038868;28;20488;-62
2021/12/17 04:30:37;;;;;;;16.10;11.73;;;;;;;;;;5034996;28;20529;-61
2021/12/17 04:33:03;;;;;;;18.40;11.73;;;;;;;;;;5033775;28;20938;-62
2021/12/17 04:35:30;;;;;;;16.30;11.37;;;;;;;;;;5035251;28;20429;-62
2021/12/17 04:37:56;;;;;;;17.37;11.10;;;;;;;;;;5034813;28;20634;-61
2021/12/17 04:40:24;;;;;;;14.30;10.77;;;;;;;;;;5034729;28;20816;-61
2021/12/17 04:45:23;;;;;;;12.90;10.03;;;;;;;;;;5056036;23;20589;-81
2021/12/17 04:58:48;;;;;;;12.00;9.43;;;;;;;;;;5035475;28;20445;-79
2021/12/17 05:01:16;;;;;;;13.80;10.60;;;;;;;;;;5036527;28;20446;-80
2021/12/17 05:03:42;;;;;;;15.30;9.03;;;;;;;;;;5036941;28;20460;-80
2021/12/17 05:06:08;;;;;;;11.57;8.90;;;;;;;;;;5037589;28;21013;-81
2021/12/17 05:08:35;;;;;;;11.80;9.10;;;;;;;;;;5037601;28;20481;-80
2021/12/17 05:19:05;;;;;;;14.80;10.60;;;;;;;;;;5043010;28;20456;-81
2021/12/17 05:21:31;;;;;;;12.43;9.77;;;;;;;;;;5037226;28;20952;-80
2021/12/17 05:23:57;;;;;;;12.70;9.27;;;;;;;;;;5035320;28;20475;-80
2021/12/17 05:26:23;;;;;;;14.70;8.63;;;;;;;;;;5063214;22;20493;-61
2021/12/17 05:28:50;;;;;;;11.97;9.20;;;;;;;;;;5053729;28;20438;-63
2021/12/17 05:31:18;;;;;;;9.73;7.63;;;;;;;;;;5053892;28;20902;-61
2021/12/17 05:33:44;;;;;;;10.93;8.73;;;;;;;;;;5053772;28;20387;-60
2021/12/17 05:36:11;;;;;;;10.70;8.33;;;;;;;;;;5053970;28;20401;-62
2021/12/17 05:38:37;;;;;;;10.03;8.20;;;;;;;;;;5053803;28;20481;-60
2021/12/17 05:41:03;;;;;;;8.90;6.90;;;;;;;;;;5053708;28;20442;-61
2021/12/17 05:43:35;;;;;;;11.30;8.13;;;;;;;;;;5053758;28;20402;-61
2021/12/17 05:48:27;;;;;;;8.23;6.80;;;;;;;;;;5053754;28;20409;-61
2021/12/17 05:50:55;;;;;;;8.67;6.70;;;;;;;;;;5053381;28;20433;-61
2021/12/17 05:53:22;;;;;;;8.60;6.73;;;;;;;;;;5053675;28;20390;-60
2021/12/17 05:55:48;;;;;;;8.40;6.57;;;;;;;;;;5053378;28;20409;-61
2021/12/17 05:58:15;;;;;;;8.07;6.10;;;;;;;;;;5053271;28;20399;-61
2021/12/17 06:00:41;;;;;;;8.00;6.90;;;;;;;;;;5053185;28;20450;-62
2021/12/17 06:03:09;;;;;;;6.63;5.47;;;;;;;;;;5053583;28;20441;-60
2021/12/17 06:05:35;;;;;;;7.60;5.60;;;;;;;;;;5053159;28;20913;-61
2021/12/17 06:08:01;;;;;;;7.97;6.73;;;;;;;;;;5051959;28;20415;-61
2021/12/17 06:10:27;;;;;;;5.57;4.70;;;;;;;;;;5053254;28;20417;-62
2021/12/17 06:12:54;;;;;;;7.93;5.97;;;;;;;;;;5053427;28;20448;-61
2021/12/17 06:15:20;;;;;;;6.23;5.50;;;;;;;;;;5053288;28;20402;-60
2021/12/17 06:17:47;;;;;;;7.93;5.97;;;;;;;;;;5052982;28;20408;-62
2021/12/17 06:20:14;;;;;;;7.80;5.63;;;;;;;;;;5052944;28;20549;-61
2021/12/17 06:22:41;;;;;;;7.83;5.83;;;;;;;;;;5052962;28;20398;-61
2021/12/17 06:25:07;;;;;;;6.27;5.43;;;;;;;;;;5053076;28;20555;-60
2021/12/17 06:27:35;;;;;;;6.90;5.13;;;;;;;;;;5053213;28;20397;-60
2021/12/17 06:30:02;;;;;;;6.50;5.80;;;;;;;;;;5053289;28;20795;-61
2021/12/17 06:32:28;;;;;;;8.37;5.70;;;;;;;;;;5053001;28;20492;-62
2021/12/17 06:34:54;;;;;;;5.83;5.07;;;;;;;;;;5052088;28;20402;-62
2021/12/17 06:37:20;;;;;;;6.03;4.73;;;;;;;;;;5053107;28;20823;-63
2021/12/17 06:39:47;;;;;;;7.77;5.60;;;;;;;;;;5052605;28;20607;-62
2021/12/17 06:42:13;;;;;;;5.67;5.13;;;;;;;;;;5052866;28;20496;-63
2021/12/17 06:44:40;;;;;;;11.20;7.40;;;;;;;;;;5052736;28;20398;-62
2021/12/17 06:47:12;;;;;;;6.40;5.13;;;;;;;;;;5052777;28;20398;-62
2021/12/17 07:10:52;;;;;;;11.30;8.83;;;;;;;;;;5052765;28;20429;-62
2021/12/17 07:39:47;;;;;;;10.77;8.50;;;;;;;;;;5053251;28;20487;-63
2021/12/17 07:42:14;;;;;;;13.40;9.83;;;;;;;;;;5053111;28;20408;-61
2021/12/17 07:44:40;;;;;;;14.50;10.73;;;;;;;;;;5052460;28;20879;-61
2021/12/17 07:47:06;;;;;;;13.07;9.90;;;;;;;;;;5053087;28;20444;-61
2021/12/17 07:49:32;;;;;;;18.73;9.77;;;;;;;;;;5053729;28;20436;-60
2021/12/17 07:51:58;;;;;;;14.80;9.77;;;;;;;;;;5053758;28;20424;-60
2021/12/17 07:54:24;;;;;;;11.10;9.27;;;;;;;;;;5055056;28;20418;-61
2021/12/17 07:56:50;;;;;;;12.50;8.83;;;;;;;;;;5055404;28;20406;-61
2021/12/17 07:59:16;;;;;;;10.77;8.63;;;;;;;;;;5054714;28;20437;-60
2021/12/17 08:01:43;;;;;;;15.10;9.50;;;;;;;;;;5054005;28;20556;-61
2021/12/17 08:04:10;;;;;;;14.80;10.10;;;;;;;;;;5055903;28;20406;-61
2021/12/17 08:06:36;;;;;;;17.73;9.70;;;;;;;;;;5056462;28;20405;-63
2021/12/17 08:09:03;;;;;;;11.10;8.13;;;;;;;;;;5056479;28;20489;-62
2021/12/17 08:11:31;;;;;;;14.00;9.40;;;;;;;;;;5055714;28;20404;-61
2021/12/17 08:13:58;;;;;;;12.20;8.37;;;;;;;;;;5055881;28;20455;-61
2021/12/17 08:31:27;;;;;;;13.30;9.37;;;;;;;;;;5055181;28;20777;-62
2021/12/17 08:33:53;;;;;;;16.83;10.17;;;;;;;;;;5055491;28;20464;-62
2021/12/17 08:36:19;;;;;;;12.53;9.63;;;;;;;;;;5055133;28;20405;-62
2021/12/17 08:38:46;;;;;;;16.43;10.80;;;;;;;;;;5055286;28;20421;-61
2021/12/17 08:41:13;;;;;;;13.10;9.30;;;;;;;;;;5055089;28;20792;-61
2021/12/17 08:43:39;;;;;;;14.40;9.00;;;;;;;;;;5054991;28;20394;-62
2021/12/17 08:46:05;;;;;;;11.60;10.00;;;;;;;;;;5054728;28;20543;-60
2021/12/17 08:48:31;;;;;;;12.00;10.73;;;;;;;;;;5054929;28;20878;-63
2021/12/17 08:50:57;;;;;;;10.80;9.50;;;;;;;;;;5054788;28;20421;-62
2021/12/17 08:53:23;;;;;;;10.53;8.07;;;;;;;;;;5054839;28;20758;-60
2021/12/17 08:55:50;;;;;;;9.77;7.67;;;;;;;;;;5055161;28;20761;-61
2021/12/17 08:58:16;;;;;;;10.40;8.40;;;;;;;;;;5054511;28;20406;-61
2021/12/17 09:00:42;;;;;;;10.70;8.43;;;;;;;;;;5054694;28;20465;-59
2021/12/17 09:03:10;;;;;;;10.60;8.73;;;;;;;;;;5054676;28;20436;-62
2021/12/17 09:05:39;;;;;;;11.10;7.50;;;;;;;;;;5054788;28;20429;-63
2021/12/17 09:08:10;;;;;;;10.73;8.10;;;;;;;;;;5054692;28;20434;-62
2021/12/17 09:10:36;;;;;;;11.80;8.03;;;;;;;;;;5054425;28;20421;-62
2021/12/17 09:13:03;;;;;;;11.37;7.80;;;;;;;;;;5054494;28;20489;-61
2021/12/17 09:15:29;;;;;;;8.83;7.40;;;;;;;;;;5054611;28;20760;-62
2021/12/17 09:17:55;;;;;;;8.93;7.77;;;;;;;;;;5054358;28;20493;-61
2021/12/17 09:20:22;;;;;;;10.10;8.83;;;;;;;;;;5053907;28;20869;-60
2021/12/17 09:22:48;;;;;;;12.23;7.67;;;;;;;;;;5054163;28;20763;-57
2021/12/17 09:25:14;;;;;;;9.67;7.40;;;;;;;;;;5053763;28;20421;-56
2021/12/17 09:27:41;;;;;;;10.17;8.17;;;;;;;;;;5053928;28;20485;-61
2021/12/17 09:30:08;;;;;;;10.80;8.33;;;;;;;;;;5054106;28;20495;-60
2021/12/17 09:32:34;;;;;;;14.33;8.27;;;;;;;;;;5054089;28;20412;-61
2021/12/17 09:35:01;;;;;;;9.17;7.70;;;;;;;;;;5054094;28;20473;-60
2021/12/17 09:37:27;;;;;;;8.93;7.43;;;;;;;;;;5053975;28;20409;-61
2021/12/17 09:39:53;;;;;;;10.13;8.40;;;;;;;;;;5053752;28;20483;-61
2021/12/17 09:42:19;;;;;;;9.77;7.63;;;;;;;;;;5054101;28;20398;-59
2021/12/17 09:44:45;;;;;;;11.27;8.20;;;;;;;;;;5053936;28;20404;-59
2021/12/17 09:47:11;;;;;;;9.90;7.83;;;;;;;;;;5053596;28;20444;-61
2021/12/17 09:49:38;;;;;;;10.40;7.33;;;;;;;;;;5053505;28;20785;-61
2021/12/17 09:52:05;;;;;;;9.30;6.87;;;;;;;;;;5053514;28;20404;-61
2021/12/17 09:54:31;;;;;;;8.87;7.17;;;;;;;;;;5053506;28;20393;-61
2021/12/17 09:56:57;;;;;;;9.37;7.20;;;;;;;;;;5053360;28;20420;-60
2021/12/17 09:59:23;;;;;;;16.20;9.40;;;;;;;;;;5053497;28;20457;-60
2021/12/17 10:01:49;;;;;;;12.00;8.43;;;;;;;;;;5053353;28;20835;-62
2021/12/17 10:04:15;;;;;;;34.97;23.63;;;;;;;;;;5053577;28;20410;-61
2021/12/17 10:06:42;;;;;;;17.57;9.60;;;;;;;;;;5053135;28;20402;-62
2021/12/17 10:09:08;;;;;;;10.27;8.63;;;;;;;;;;5053475;28;20759;-62
2021/12/17 10:11:34;;;;;;;11.23;8.93;;;;;;;;;;5053518;28;20767;-61
2021/12/17 10:14:24;;;;;;;10.53;7.17;;;;;;;;;;5053437;28;20410;-62
2021/12/17 10:16:50;;;;;;;10.03;8.77;;;;;;;;;;5053241;28;20387;-62
2021/12/17 10:19:35;;;;;;;9.60;7.43;;;;;;;;;;5053479;28;20428;-62
2021/12/17 10:22:15;;;;;;;12.10;8.03;;;;;;;;;;5053255;28;20461;-62
2021/12/17 10:25:16;;;;;;;10.00;8.30;;;;;;;;;;5052908;28;20404;-62
2021/12/17 10:27:43;;;;;;;12.90;8.60;;;;;;;;;;5031015;28;21186;-62
2021/12/17 10:30:15;;;;;;;10.20;8.30;;;;;;;;;;5048772;28;20429;-62
2021/12/17 10:32:45;;;;;;;12.50;8.87;;;;;;;;;;5053151;28;20429;-62
2021/12/17 10:35:12;;;;;;;11.57;8.57;;;;;;;;;;5053292;28;20410;-61
2021/12/17 10:37:43;;;;;;;10.37;7.80;;;;;;;;;;5053020;28;20405;-61
2021/12/17 10:40:15;;;;;;;10.67;8.67;;;;;;;;;;5052700;28;20825;-62
2021/12/17 10:42:50;;;;;;;19.03;8.67;;;;;;;;;;5052885;28;20492;-61
2021/12/17 10:45:24;;;;;;;8.37;7.43;;;;;;;;;;5053038;28;20393;-61
2021/12/17 10:48:02;;;;;;;10.03;7.70;;;;;;;;;;5053254;28;20378;-61
2021/12/17 10:50:28;;;;;;;12.50;8.37;;;;;;;;;;5052962;28;20547;-60
2021/12/17 10:52:57;;;;;;;10.10;7.03;;;;;;;;;;5052885;28;20489;-61
2021/12/17 10:55:25;;;;;;;12.77;7.43;;;;;;;;;;5052944;28;20410;-61
2021/12/17 10:57:58;;;;;;;9.50;7.70;;;;;;;;;;5052662;28;20401;-63
2021/12/17 11:00:24;;;;;;;9.83;7.10;;;;;;;;;;5052552;28;20453;-61
2021/12/17 11:02:51;;;;;;;10.63;8.73;;;;;;;;;;5052572;28;20488;-61
2021/12/17 11:05:17;;;;;;;10.43;9.07;;;;;;;;;;5052640;28;20404;-61
2021/12/17 11:07:47;;;;;;;12.90;8.93;;;;;;;;;;5052468;28;20410;-62
2021/12/17 11:10:13;;;;;;;12.43;8.53;;;;;;;;;;5052266;28;20795;-60
2021/12/17 11:12:44;;;;;;;14.23;9.97;;;;;;;;;;5052419;28;20413;-61
2021/12/17 11:15:19;;;;;;;11.20;8.90;;;;;;;;;;5051002;28;20423;-62
2021/12/17 11:17:46;;;;;;;11.87;8.67;;;;;;;;;;5052662;28;20462;-63
2021/12/17 11:20:12;;;;;;;15.20;8.87;;;;;;;;;;5052377;28;20596;-62
2021/12/17 11:22:39;;;;;;;13.67;8.50;;;;;;;;;;5055113;28;20508;-60
2021/12/17 11:25:06;;;;;;;10.03;7.57;;;;;;;;;;5056589;28;20429;-61
2021/12/17 11:27:33;;;;;;;10.10;8.27;;;;;;;;;;5054171;28;20949;-61
2021/12/17 11:29:59;;;;;;;10.97;9.00;;;;;;;;;;5037761;28;20484;-61
2021/12/17 11:32:25;;;;;;;10.50;7.93;;;;;;;;;;5036244;28;20398;-61
2021/12/17 11:34:52;;;;;;;11.37;8.43;;;;;;;;;;5036357;28;20537;-61
2021/12/17 11:37:19;;;;;;;11.10;8.93;;;;;;;;;;5036008;28;20406;-62
2021/12/17 11:39:49;;;;;;;10.00;7.70;;;;;;;;;;5036206;28;20430;-61
2021/12/17 11:42:24;;;;;;;9.33;8.07;;;;;;;;;;5036263;28;20470;-62
2021/12/17 11:45:23;;;;;;;9.37;8.37;;;;;;;;;;5036399;28;20952;-63
2021/12/17 11:47:41;;;;;;;10.63;7.63;;;;;;;;;;5036059;28;20445;-60
2021/12/17 11:50:08;;;;;;;11.87;8.77;;;;;;;;;;5036471;28;20413;-59
2021/12/17 11:52:42;;;;;;;10.00;7.90;;;;;;;;;;5035863;28;20418;-60
2021/12/17 11:55:24;;;;;;;11.07;8.13;;;;;;;;;;5035773;28;20400;-60
2021/12/17 11:57:51;;;;;;;10.17;7.33;;;;;;;;;;5034042;28;20437;-61
2021/12/17 12:00:22;;;;;;;10.37;7.67;;;;;;;;;;5035878;28;20450;-60
2021/12/17 12:02:49;;;;;;;11.33;8.37;;;;;;;;;;5035530;28;20379;-63
2021/12/17 12:05:35;;;;;;;16.73;9.40;;;;;;;;;;5035595;28;20398;-62
2021/12/17 12:08:19;;;;;;;9.70;7.70;;;;;;;;;;5035873;28;20386;-61
2021/12/17 12:11:01;;;;;;;12.00;8.30;;;;;;;;;;5035366;28;20468;-60
2021/12/17 12:13:38;;;;;;;18.03;8.90;;;;;;;;;;5035656;28;20387;-60
2021/12/17 12:16:06;;;;;;;10.03;7.90;;;;;;;;;;5035257;28;20482;-61
2021/12/17 12:18:39;;;;;;;9.90;8.13;;;;;;;;;;5035684;28;20399;-61
2021/12/17 12:21:05;;;;;;;10.80;8.20;;;;;;;;;;5034383;28;20446;-60
2021/12/17 12:23:32;;;;;;;11.90;8.37;;;;;;;;;;5036011;28;20398;-61
2021/12/17 12:26:04;;;;;;;14.00;9.27;;;;;;;;;;5035584;28;20415;-61
2021/12/17 12:28:48;;;;;;;11.70;8.20;;;;;;;;;;5035835;28;20483;-61
2021/12/17 12:31:17;;;;;;;12.70;9.30;;;;;;;;;;5035390;28;20423;-58
2021/12/17 12:34:05;;;;;;;9.23;8.27;;;;;;;;;;5034381;28;20398;-60
2021/12/17 12:36:50;;;;;;;12.47;8.30;;;;;;;;;;5035197;28;20439;-61
2021/12/17 12:39:21;;;;;;;10.40;7.43;;;;;;;;;;5035010;28;20466;-61
2021/12/17 12:42:03;;;;;;;9.93;8.20;;;;;;;;;;5034935;28;20483;-61
2021/12/17 12:44:47;;;;;;;10.37;8.20;;;;;;;;;;5034934;28;20387;-61
2021/12/17 12:47:26;;;;;;;12.37;8.83;;;;;;;;;;5034916;28;20403;-61
2021/12/17 12:50:04;;;;;;;11.23;8.63;;;;;;;;;;5035033;28;20797;-60
2021/12/17 12:52:49;;;;;;;8.93;8.03;;;;;;;;;;5035090;28;20411;-60
2021/12/17 12:55:20;;;;;;;10.20;8.70;;;;;;;;;;5035058;28;20761;-60
2021/12/17 12:57:48;;;;;;;14.40;8.90;;;;;;;;;;5034576;28;20891;-60
2021/12/17 13:00:31;;;;;;;11.87;8.20;;;;;;;;;;5034739;28;20450;-60
2021/12/17 13:03:00;;;;;;;11.93;8.70;;;;;;;;;;5034828;28;20387;-61
2021/12/17 13:05:26;;;;;;;9.53;8.33;;;;;;;;;;5034641;28;20409;-61
2021/12/17 13:07:54;;;;;;;9.33;7.87;;;;;;;;;;5034586;28;20784;-61
2021/12/17 13:10:23;;;;;;;11.03;9.20;;;;;;;;;;5034937;28;20778;-59
2021/12/17 13:13:18;;;;;;;15.20;9.50;;;;;;;;;;5034437;28;20825;-60
2021/12/17 13:15:50;;;;;;;11.07;8.80;;;;;;;;;;5034718;28;20738;-62
2021/12/17 13:26:37;;;;;;;10.87;8.90;;;;;;;;;;5052808;28;20452;-61
2021/12/17 13:29:11;;;;;;;11.47;8.93;;;;;;;;;;5054183;28;20410;-60
2021/12/17 13:31:37;;;;;;;12.03;8.87;;;;;;;;;;5053866;28;20436;-61
2021/12/17 13:34:07;;;;;;;12.33;8.80;;;;;;;;;;5053308;28;20816;-60
2021/12/17 13:36:33;;;;;;;12.50;8.80;;;;;;;;;;5053047;28;20480;-60
2021/12/17 13:38:59;;;;;;;13.03;8.73;;;;;;;;;;5043168;28;20551;-60
2021/12/17 13:41:46;;;;;;;11.10;9.20;;;;;;;;;;5053550;28;20859;-60
2021/12/17 13:44:31;;;;;;;12.60;10.93;;;;;;;;;;5053598;28;20406;-59
2021/12/17 13:47:09;;;;;;;13.13;11.30;;;;;;;;;;5054164;28;20398;-61
2021/12/17 13:49:35;;;;;;;13.03;10.63;;;;;;;;;;5053601;28;20420;-62
2021/12/17 13:52:02;;;;;;;10.17;9.00;;;;;;;;;;5053647;28;20929;-61
2021/12/17 13:54:29;;;;;;;13.63;9.87;;;;;;;;;;5053653;28;20488;-61
2021/12/17 13:56:58;;;;;;;12.57;9.17;;;;;;;;;;5053325;28;20968;-60
2021/12/17 13:59:28;;;;;;;12.20;10.47;;;;;;;;;;5053245;28;20420;-61
2021/12/17 14:01:54;;;;;;;13.77;10.60;;;;;;;;;;5052955;28;20449;-62
2021/12/17 14:04:21;;;;;;;11.07;9.97;;;;;;;;;;5053618;28;20398;-62
2021/12/17 14:06:52;;;;;;;14.40;10.33;;;;;;;;;;5053686;28;20722;-62
2021/12/17 14:09:21;;;;;;;13.07;10.50;;;;;;;;;;5053287;28;20409;-62
2021/12/17 14:11:48;;;;;;;13.30;9.77;;;;;;;;;;5053616;28;20423;-62
2021/12/17 14:14:28;;;;;;;12.57;11.10;;;;;;;;;;5053553;28;20493;-62
2021/12/17 14:16:58;;;;;;;11.53;9.50;;;;;;;;;;5053386;28;20404;-62
2021/12/17 14:19:39;;;;;;;11.40;10.00;;;;;;;;;;5053430;28;20418;-62
2021/12/17 14:22:24;;;;;;;11.70;10.10;;;;;;;;;;5053062;28;21009;-61
2021/12/17 14:24:50;;;;;;;13.43;9.80;;;;;;;;;;5053226;28;20436;-60
2021/12/17 14:27:16;;;;;;;14.30;11.03;;;;;;;;;;5053537;28;20425;-61
2021/12/17 14:29:42;;;;;;;13.10;10.20;;;;;;;;;;5051759;28;20797;-62
2021/12/17 14:32:15;;;;;;;13.47;9.97;;;;;;;;;;5052172;28;20774;-62
2021/12/17 14:34:41;;;;;;;11.87;8.73;;;;;;;;;;5050002;28;20470;-62
2021/12/17 14:37:07;;;;;;;17.57;14.10;;;;;;;;;;5053145;28;20413;-62
2021/12/17 14:39:36;;;;;;;10.90;9.63;;;;;;;;;;5056175;28;20432;-62
2021/12/17 14:42:05;;;;;;;14.53;10.60;;;;;;;;;;5051944;28;20452;-62
2021/12/17 14:47:19;;;;;;;17.40;11.20;;;;;;;;;;5049093;28;20414;-61
2021/12/17 15:05:52;;;;;;;13.77;11.30;;;;;;;;;;5054343;28;20409;-61
2021/12/17 15:08:18;;;;;;;14.20;11.17;;;;;;;;;;5054732;28;20406;-61
2021/12/17 15:10:45;;;;;;;12.60;11.40;;;;;;;;;;5056817;28;20448;-61
2021/12/17 15:13:12;;;;;;;15.53;12.40;;;;;;;;;;5054651;28;20464;-61
2021/12/17 15:15:39;;;;;;;14.70;11.90;;;;;;;;;;5054661;28;20438;-61
2021/12/17 15:18:07;;;;;;;13.43;11.07;;;;;;;;;;5054117;28;20460;-61
2021/12/17 15:20:34;;;;;;;17.10;11.73;;;;;;;;;;5056353;28;20841;-61
2021/12/17 15:23:03;;;;;;;14.37;12.00;;;;;;;;;;5056728;28;20404;-60
2021/12/17 15:25:29;;;;;;;18.50;13.77;;;;;;;;;;5053985;28;20453;-61
2021/12/17 15:27:56;;;;;;;15.33;12.17;;;;;;;;;;5055710;28;20492;-60
2021/12/17 15:30:33;;;;;;;15.17;12.93;;;;;;;;;;5053809;28;20425;-61
2021/12/17 15:33:00;;;;;;;16.00;13.07;;;;;;;;;;5054243;28;20429;-60
2021/12/17 15:35:27;;;;;;;16.73;12.20;;;;;;;;;;5053768;28;20496;-60
2021/12/17 15:37:54;;;;;;;16.27;11.90;;;;;;;;;;5056139;28;20422;-62
2021/12/17 15:40:20;;;;;;;16.73;14.10;;;;;;;;;;5056275;28;20517;-63
2021/12/17 15:42:48;;;;;;;16.20;14.10;;;;;;;;;;5055652;28;20859;-61
2021/12/17 15:45:14;;;;;;;19.33;14.10;;;;;;;;;;5056833;28;20497;-60
2021/12/17 15:47:40;;;;;;;17.93;14.67;;;;;;;;;;5056236;28;20767;-61
2021/12/17 15:50:08;;;;;;;18.80;13.97;;;;;;;;;;5055796;28;20914;-61
2021/12/17 15:52:36;;;;;;;15.93;12.90;;;;;;;;;;5056049;28;20903;-61
2021/12/17 15:55:03;;;;;;;20.17;14.90;;;;;;;;;;5054604;28;20414;-61
2021/12/17 15:57:29;;;;;;;16.53;14.70;;;;;;;;;;5056146;28;20754;-61
2021/12/17 15:59:55;;;;;;;20.57;16.67;;;;;;;;;;5056330;28;20841;-61
2021/12/17 16:02:21;;;;;;;20.50;15.90;;;;;;;;;;5055974;28;20476;-61
2021/12/17 16:04:48;;;;;;;26.37;16.00;;;;;;;;;;5055987;28;20406;-63
2021/12/17 16:07:14;;;;;;;24.73;17.67;;;;;;;;;;5055375;28;20485;-61
2021/12/17 16:22:58;;;;;;;17.20;13.63;;;;;;;;;;5055649;28;20377;-58
2021/12/17 16:25:24;;;;;;;23.20;15.27;;;;;;;;;;5055372;28;20414;-57
2021/12/17 16:27:50;;;;;;;20.40;15.93;;;;;;;;;;5055510;28;20390;-61
2021/12/17 16:30:16;;;;;;;19.67;14.63;;;;;;;;;;5055458;28;20780;-59
2021/12/17 16:32:42;;;;;;;17.73;15.00;;;;;;;;;;5055097;28;20504;-61
2021/12/17 16:35:08;;;;;;;22.40;14.80;;;;;;;;;;5053811;28;20505;-61
2021/12/17 16:37:34;;;;;;;22.33;16.40;;;;;;;;;;5055156;28;20490;-62
2021/12/17 16:40:01;;;;;;;20.07;15.20;;;;;;;;;;5055340;28;20475;-62
2021/12/17 16:42:27;;;;;;;20.50;16.63;;;;;;;;;;5055304;28;20501;-62
2021/12/17 16:47:25;;;;;;;20.40;16.27;;;;;;;;;;5055102;28;20439;-61
2021/12/17 16:49:51;;;;;;;20.43;15.07;;;;;;;;;;5054956;28;20501;-62
2021/12/17 16:52:17;;;;;;;18.70;15.50;;;;;;;;;;5055025;28;20775;-62
2021/12/17 16:54:43;;;;;;;19.83;15.87;;;;;;;;;;5054911;28;20403;-62
2021/12/17 16:57:10;;;;;;;18.70;15.60;;;;;;;;;;5054703;28;20543;-62
2021/12/17 16:59:36;;;;;;;20.83;16.77;;;;;;;;;;5054876;28;20789;-62
2021/12/17 17:02:02;;;;;;;23.23;16.23;;;;;;;;;;5054823;28;20813;-62
2021/12/17 17:04:28;;;;;;;16.93;15.13;;;;;;;;;;5054826;28;20909;-62
2021/12/17 17:06:54;;;;;;;23.77;17.30;;;;;;;;;;5054593;28;20447;-62
2021/12/17 17:09:20;;;;;;;24.17;16.73;;;;;;;;;;5054853;28;20415;-62
2021/12/17 17:11:49;;;;;;;20.33;15.87;;;;;;;;;;5054884;28;20417;-62
2021/12/17 17:14:15;;;;;;;22.77;17.50;;;;;;;;;;5054768;28;20815;-62
2021/12/17 17:16:41;;;;;;;23.50;17.93;;;;;;;;;;5054406;28;20410;-62
2021/12/17 17:19:07;;;;;;;26.50;18.10;;;;;;;;;;5054016;28;20850;-61
2021/12/17 17:21:34;;;;;;;26.83;18.27;;;;;;;;;;5054232;28;20453;-62
2021/12/17 17:24:04;;;;;;;23.47;19.43;;;;;;;;;;5054663;28;20397;-62
2021/12/17 17:26:31;;;;;;;24.83;19.50;;;;;;;;;;5049325;28;20446;-61
2021/12/17 17:28:57;;;;;;;23.83;17.87;;;;;;;;;;5034342;28;20411;-62
2021/12/17 17:31:23;;;;;;;21.73;16.10;;;;;;;;;;5034272;28;20413;-61
2021/12/17 17:33:50;;;;;;;20.00;16.70;;;;;;;;;;5034296;28;20433;-61
2021/12/17 17:36:17;;;;;;;23.67;17.70;;;;;;;;;;5034602;28;20422;-61
2021/12/17 17:38:43;;;;;;;24.30;17.43;;;;;;;;;;5034386;28;20437;-61
2021/12/17 17:41:09;;;;;;;25.83;16.93;;;;;;;;;;5036363;28;20464;-60
2021/12/17 17:43:35;;;;;;;24.77;17.87;;;;;;;;;;5051968;28;20449;-63
2021/12/17 17:46:01;;;;;;;27.47;17.70;;;;;;;;;;5053309;28;20402;-59
2021/12/17 17:48:28;;;;;;;32.33;20.43;;;;;;;;;;5053501;28;20412;-59
2021/12/17 17:50:54;;;;;;;25.77;18.20;;;;;;;;;;5053580;28;20445;-60
2021/12/17 17:53:20;;;;;;;27.60;17.40;;;;;;;;;;5053384;28;20886;-58
2021/12/17 17:55:46;;;;;;;27.47;19.10;;;;;;;;;;5052406;28;20442;-60
2021/12/17 17:58:13;;;;;;;27.20;18.40;;;;;;;;;;5052872;28;20421;-66
2021/12/17 18:00:40;;;;;;;26.00;19.43;;;;;;;;;;5053210;28;20453;-63
2021/12/17 18:03:06;;;;;;;34.07;24.20;;;;;;;;;;5053177;28;20418;-66
2021/12/17 18:05:32;;;;;;;29.00;18.10;;;;;;;;;;5053136;28;20428;-60
2021/12/17 18:07:59;;;;;;;27.67;20.47;;;;;;;;;;5053376;28;20410;-59
2021/12/17 18:10:25;;;;;;;26.30;18.40;;;;;;;;;;5053198;28;20914;-61
2021/12/17 18:12:53;;;;;;;29.07;20.37;;;;;;;;;;5053306;28;20406;-59
2021/12/17 18:15:20;;;;;;;28.40;20.80;;;;;;;;;;5053580;28;20770;-60
2021/12/17 18:17:46;;;;;;;26.80;20.80;;;;;;;;;;5053521;28;20972;-57